Portada
METAR-TAF:

METAR-TAF

Aeroports :

Bandar Kangan, Iran

latitud: 27-49-14N, longitud: 52-21-08E, altitud: 662 m

Observació

L'informe es va fer fa 3 hores i 21 minuts, a les 15:00 UTC
Vent 8 kt del Nord-Oest
Temperatura 37°C
Humitat 16%
Pressió 1007 hPa
Visibilitat 10 km o més
sense núvols per sota de 1500 mi sense presència de cumulonimbus.

METAR: OIBJ 251500Z 32008KT CAVOK 37/07 Q1007 A2975

Hora: 22:51 (18:21 UTC)


TAF: manca

Observacions i pronòstics meteorològics de més de 4000 aeroports (METAR i TAF).

Les estacions disponibles són els punts grocs i vermells al mapa.

Posi el ratolí al punt desitjat per veure el nom de l'estació.

Feu clic per veure les observacions i els pronòstics meteorològics.

Per canviar el mapa: feu clic els botons verds amb una creu de color negre per apropar; al botó verd amb un guió per allunyar la imatge; o en les fletxes verdes per a mapes adjacents.


METAR-TAF: